Station: Marrangaroo (Defence)  

  Atmospheric Gas Attenuation - ITU Rec 676-11   ----------------- dB/100km -----------------
Date Time Temp RH % AH g/m3 Dew Point Wind Direction Speed kph Gust kph Barometer mB Rainfall Since 9am 24GHz 47GHz 76GHz 122GHz 134GHz 241GHz
08/05 12:30 10.6 65 6.35 4.3 17 35 1013.1 0 14.9 23.2 32.4 84.7 72.8 248.3
08/05 12:20 9.9 66 6.16 3.8 24 37 1013.1 0 14.5 23.1 32.0 83.5 71.0 242.1
08/05 12:10 9.8 66 6.13 3.7 17 24 1013.1 0 14.5 23.1 31.9 83.3 70.7 241.0
08/05 12:00 10.3 65 6.23 4 15 33 1013.1 0 14.7 23.1 32.1 83.8 71.5 243.9
08/05 11:50 10.2 65 6.19 3.9 17 24 1013.1 0 14.6 23.1 31.9 83.4 71.1 242.5
08/05 11:40 9.8 66 6.13 3.7 17 26 1013.1 0 14.5 23.1 31.9 83.3 70.7 241.0
08/05 11:30 9.5 66 6.01 3.5 20 33 1013.1 0 14.2 23.0 31.5 82.3 69.5 236.6
08/05 11:20 10 67 6.3 4.3 11 15 1013.1 0 14.8 23.3 32.5 84.8 72.7 248.0
08/05 11:10 8.4 73 6.2 3.8 19 33 1013.1 0 14.7 23.5 32.7 85.5 72.9 248.5
08/05 11:00 7.7 73 5.92 3.2 20 41 1013.1 0 14.1 23.3 31.9 83.3 69.9 237.9
08/05 10:50 7.4 76 6.05 3.4 13 19 1013.1 0 14.4 23.6 32.5 85.0 71.9 244.8
08/05 10:40 7 74 5.74 2.7 28 41 1013.1 0 13.7 23.2 31.5 82.1 68.2 231.8
08/05 10:30 6.9 75 5.78 2.8 17 32 1013.1 0 13.8 23.3 31.7 82.7 68.8 233.9
08/05 10:20 7.1 74 5.77 2.9 11 17 1013.1 0 13.8 23.2 31.5 82.3 68.5 232.9
08/05 10:10 6.6 75 5.66 2.5 9 15 1013.1 0 13.6 23.1 31.3 81.7 67.5 229.4
08/05 10:00 6.7 75 5.7 2.6 17 39 1013.1 0 13.7 23.2 31.4 82.0 68.0 230.9
08/05 09:50 6.8 74 5.66 2.6 7 11 1013.1 0 13.6 23.1 31.2 81.5 67.4 228.8
08/05 09:40 6.3 75 5.55 2.2 19 32 1013.1 0 13.4 23.0 31.0 80.9 66.4 225.2
08/05 09:30 6 78 5.66 2.5 13 30 1013.1 0 13.6 23.3 31.5 82.3 68.1 231.1
08/05 09:20 5.5 79 5.55 2.1 9 17 1013.1 0 13.4 23.3 31.3 81.7 67.1 227.5
08/05 09:10 5.3 79 5.48 1.9 13 20 1013.1 0 13.3 23.2 31.1 81.2 66.3 224.9
08/05 09:00 5.4 79 5.52 2.1 13 32 1013.1 0 13.3 23.2 31.2 81.5 66.7 226.4
08/05 08:50 5.3 77 5.34 1.7 17 32 1013.1 0 12.9 23.0 30.6 79.7 64.5 218.4
08/05 08:40 5.4 79 5.52 2 9 11 1013.1 0 13.3 23.2 31.2 81.5 66.7 226.4
08/05 08:30 5.1 81 5.54 2.1 11 22 1013.1 0 13.4 23.3 31.4 82.0 67.3 228.2
08/05 08:20 4.7 82 5.47 1.9 11 15 1013.1 0 13.3 23.3 31.3 81.7 66.7 226.1
08/05 08:10 4.6 83 5.5 1.9 9 17 1013.1 0 13.3 23.4 31.5 82.1 67.2 227.8
08/05 08:00 4.3 84 5.45 1.8 11 19 1013.1 0 13.2 23.4 31.4 81.9 66.8 226.3
08/05 07:50 4.4 84 5.49 1.9 13 19 1013.1 0 13.3 23.4 31.5 82.2 67.2 227.9
08/05 07:40 4.5 83 5.46 1.8 13 17 1013.1 0 13.2 23.4 31.3 81.8 66.7 226.2
08/05 07:30 4.3 83 5.39 1.7 13 24 1013.1 0 13.1 23.3 31.1 81.2 66.0 223.5
08/05 07:20 4.4 82 5.36 1.7 11 17 1013.1 0 13.0 23.2 31.0 80.8 65.5 221.9
08/05 07:10 4.3 82 5.32 1.5 13 19 1013.1 0 12.9 23.2 30.9 80.5 65.0 220.3
08/05 07:00 4.3 82 5.32 1.5 11 26 1013.1 0 12.9 23.2 30.9 80.5 65.0 220.3
08/05 06:50 4.3 81 5.26 1.3 17 22 1013.1 0 12.8 23.1 30.6 79.8 64.3 217.5
08/05 06:40 4.3 80 5.19 1.1 11 13 1013.1 0 12.7 23.0 30.3 79.1 63.3 214.3
08/05 06:30 4.3 80 5.19 1.2 11 26 1013.1 0 12.7 23.0 30.3 79.1 63.3 214.3
08/05 06:20 4.1 81 5.19 1.1 11 19 1013.1 0 12.7 23.0 30.4 79.3 63.5 214.8
08/05 06:10 4.2 80 5.16 1 9 15 1013.1 0 12.6 23.0 30.3 78.9 63.0 213.2
08/05 06:00 4.2 79 5.09 0.9 7 17 1013.1 0 12.4 22.9 30.0 78.1 62.1 210.0
08/05 05:50 4.2 79 5.09 0.9 4 6 1013.1 0 12.4 22.9 30.0 78.1 62.1 210.0
08/05 05:40 4.2 78 5.03 0.7 9 13 1013.1 0 12.3 22.8 29.7 77.5 61.3 207.2
08/05 05:30 4.1 79 5.06 0.8 7 30 1013.1 0 12.4 22.8 29.9 77.9 61.8 208.9
08/05 05:20 4.1 78 5 0.6 7 13 1013.1 0 12.3 22.7 29.7 77.3 61.0 206.1
08/05 05:10 4 78 4.96 0.5 9 17 1013.1 0 12.2 22.7 29.5 77.0 60.6 204.5
08/05 05:00 3.9 78 4.93 0.4 6 24 1013.1 0 12.1 22.7 29.5 76.7 60.3 203.4
08/05 04:50 3.9 78 4.93 0.4 7 9 1013.1 0 12.1 22.7 29.5 76.7 60.3 203.4
08/05 04:40 3.9 77 4.87 0.2 13 19 1013.1 0 12.0 22.6 29.2 76.1 59.5 200.7
08/05 04:30 4 76 4.84 0.2 9 24 1013.1 0 11.9 22.5 29.1 75.7 59.0 199.1
08/05 04:20 4 74 4.71 -0.1 7 15 1013.1 0 11.6 22.3 28.6 74.3 57.3 193.2
08/05 04:10 3.8 76 4.77 -0.1 6 9 1013.1 0 11.8 22.4 28.9 75.2 58.3 196.4
08/05 04:00 3.8 76 4.77 0 9 19 1013.1 0 11.8 22.4 28.9 75.2 58.3 196.4
08/05 03:50 3.7 77 4.8 0 15 20 1013.1 0 11.8 22.5 29.0 75.6 58.7 198.0
08/05 03:40 3.6 75 4.65 -0.3 7 11 1013.1 0 11.5 22.3 28.5 74.1 56.8 191.4
08/05 03:30 3.5 76 4.68 -0.3 9 19 1013.1 0 11.6 22.4 28.6 74.5 57.3 193.0
08/05 03:20 3.3 75 4.55 -0.6 6 7 1013.1 0 11.3 22.2 28.2 73.3 55.8 187.6
08/05 03:10 3.2 75 4.52 -0.7 13 17 1013.1 0 11.3 22.2 28.1 73.1 55.5 186.5
08/05 03:00 3.1 76 4.55 -0.7 7 19 1013.1 0 11.3 22.3 28.3 73.5 55.9 188.1
08/05 02:50 3.3 75 4.55 -0.7 9 15 1013.1 0 11.3 22.2 28.2 73.3 55.8 187.6
08/05 02:40 3.4 74 4.52 -0.8 4 6 1013.1 0 11.2 22.2 28.0 72.9 55.3 186.0
08/05 02:30 3.3 76 4.62 -0.5 4 9 1013.1 0 11.5 22.3 28.5 74.1 56.7 190.8
08/05 02:20 3.4 75 4.58 -0.5 7 9 1013.1 0 11.4 22.2 28.3 73.5 56.1 188.7
08/05 02:10 3.4 77 4.71 -0.3 7 11 1013.1 0 11.7 22.5 28.8 74.9 57.8 194.6
08/05 02:00 3.4 76 4.65 -0.4 2 11 1013.1 0 11.5 22.4 28.5 74.3 57.0 191.9
08/05 01:50 3.4 75 4.58 -0.5 0 0 1013.1 0 11.4 22.2 28.3 73.5 56.1 188.7
08/05 01:40 3.4 75 4.58 -0.5 4 4 1013.1 0 11.4 22.2 28.3 73.5 56.1 188.7
08/05 01:30 3.4 75 4.58 -0.6 6 15 1013.1 0 11.4 22.2 28.3 73.5 56.1 188.7
08/05 01:20 3.4 75 4.58 -0.6 7 9 1013.1 0 11.4 22.2 28.3 73.5 56.1 188.7
08/05 01:10 3.4 75 4.58 -0.6 7 11 1013.1 0 11.4 22.2 28.3 73.5 56.1 188.7
08/05 01:00 3.4 75 4.58 -0.6 7 19 1013.1 0 11.4 22.2 28.3 73.5 56.1 188.7
08/05 00:50 3.4 74 4.52 -0.8 6 7 1013.1 0 11.2 22.2 28.0 72.9 55.3 186.0
08/05 00:40 3.4 74 4.52 -0.8 7 13 1013.1 0 11.2 22.2 28.0 72.9 55.3 186.0
08/05 00:20 3.3 74 4.49 -0.9 9 13 1013.1 0 11.2 22.1 28.0 72.7 55.0 184.9
08/05 00:10 3.2 74 4.46 -1 13 19 1013.1 0 11.1 22.1 27.9 72.5 54.7 183.8
08/05 00:00 3 75 4.46 -1 13 37 1013.1 0 11.1 22.2 27.9 72.7 54.8 184.2
07/05 23:50 2.7 76 4.43 -1.1 6 9 1013.1 0 11.1 22.2 27.9 72.6 54.6 183.5
07/05 23:40 2.5 76 4.37 -1.3 2 4 1013.1 0 11.0 22.1 27.8 72.2 54.0 181.3
07/05 23:30 2.4 75 4.29 -1.6 6 11 1013.1 0 10.8 22.0 27.5 71.4 53.0 177.9
07/05 23:20 2.5 74 4.26 -1.7 4 7 1013.1 0 10.7 22.0 27.3 71.0 52.6 176.3
07/05 23:10 2.5 74 4.26 -1.7 7 7 1013.1 0 10.7 22.0 27.3 71.0 52.6 176.3
07/05 23:00 2.4 75 4.29 -1.6 7 20 1013.1 0 10.8 22.0 27.5 71.4 53.0 177.9
07/05 22:50 2.3 74 4.2 -1.9 7 11 1013.1 0 10.6 21.9 27.2 70.6 52.0 174.0
07/05 22:40 2.4 73 4.17 -2 11 19 1013.1 0 10.5 21.8 27.0 70.2 51.5 172.4
07/05 22:30 2.4 72 4.12 -2.1 11 28 1013.1 0 10.4 21.8 26.8 69.7 50.9 170.2
07/05 22:20 2.2 73 4.12 -2.2 15 19 1013.1 0 10.4 21.8 26.9 69.8 51.0 170.6
07/05 22:10 2.5 70 4.03 -2.3 9 13 1013.1 0 10.2 21.6 26.4 68.7 49.6 165.9
07/05 22:00 2.6 70 4.06 -2.3 13 26 1013.1 0 10.3 21.6 26.5 68.9 50.0 167.1
07/05 21:50 2.6 70 4.06 -2.3 7 9 1013.1 0 10.3 21.6 26.5 68.9 50.0 167.1
07/05 21:40 2.6 70 4.06 -2.3 17 22 1013.1 0 10.3 21.6 26.5 68.9 50.0 167.1
07/05 21:30 2.8 69 4.05 -2.3 13 30 1013.1 0 10.3 21.6 26.4 68.6 49.7 166.2
07/05 21:20 2.7 69 4.02 -2.4 11 19 1013.1 0 10.2 21.5 26.3 68.4 49.4 165.1
07/05 21:10 2.7 69 4.02 -2.4 6 6 1013.1 0 10.2 21.5 26.3 68.4 49.4 165.1
07/05 21:00 2.8 68 3.99 -2.5 11 28 1013.1 0 10.1 21.5 26.2 68.0 48.9 163.5
07/05 20:50 2.7 68 3.97 -2.6 11 15 1013.1 0 10.1 21.5 26.1 67.9 48.8 162.8
07/05 20:40 2.9 67 3.96 -2.6 4 6 1013.1 0 10.1 21.4 26.0 67.6 48.5 162.0
07/05 20:30 3.1 66 3.95 -2.6 15 28 1013.1 0 10.0 21.3 25.9 67.3 48.3 161.1
07/05 20:20 3.1 66 3.95 -2.7 17 32 1013.1 0 10.0 21.3 25.9 67.3 48.3 161.1
07/05 20:10 3.2 65 3.92 -2.8 15 24 1013.1 0 10.0 21.3 25.8 66.9 47.8 159.6
07/05 20:00 3.3 65 3.95 -2.6 20 39 1013.1 0 10.0 21.3 25.9 67.1 48.1 160.7
07/05 19:50 3.3 65 3.95 -2.7 22 28 1013.1 0 10.0 21.3 25.9 67.1 48.1 160.7

Last Refresh: 08-May-2026 12:08:15

Bureau of Meteorology